sensor_id;sensor_type;location;lat;lon;timestamp;P1;durP1;ratioP1;P2;durP2;ratioP2
15833;SDS011;8017;50.812;4.934;2022-12-18T00:01:36;78.23;;;36.73;;
15833;SDS011;8017;50.812;4.934;2022-12-18T00:04:39;76.57;;;37.40;;
15833;SDS011;8017;50.812;4.934;2022-12-18T00:07:42;72.43;;;36.10;;
15833;SDS011;8017;50.812;4.934;2022-12-18T00:10:44;71.77;;;37.47;;
15833;SDS011;8017;50.812;4.934;2022-12-18T00:13:46;69.80;;;36.47;;
15833;SDS011;8017;50.812;4.934;2022-12-18T00:16:48;73.13;;;38.17;;
15833;SDS011;8017;50.812;4.934;2022-12-18T00:19:50;64.63;;;35.33;;
15833;SDS011;8017;50.812;4.934;2022-12-18T00:22:54;72.07;;;38.03;;
15833;SDS011;8017;50.812;4.934;2022-12-18T00:25:58;69.40;;;34.40;;
15833;SDS011;8017;50.812;4.934;2022-12-18T00:29:01;73.77;;;36.83;;
15833;SDS011;8017;50.812;4.934;2022-12-18T00:32:04;72.73;;;35.47;;
15833;SDS011;8017;50.812;4.934;2022-12-18T00:35:06;67.13;;;34.17;;
15833;SDS011;8017;50.812;4.934;2022-12-18T00:38:10;74.23;;;34.03;;
15833;SDS011;8017;50.812;4.934;2022-12-18T00:41:14;71.80;;;35.10;;
15833;SDS011;8017;50.812;4.934;2022-12-18T00:44:37;70.40;;;33.53;;
15833;SDS011;8017;50.812;4.934;2022-12-18T00:47:38;71.07;;;34.57;;
15833;SDS011;8017;50.812;4.934;2022-12-18T00:50:40;60.60;;;32.03;;
15833;SDS011;8017;50.812;4.934;2022-12-18T00:53:43;60.57;;;32.83;;
15833;SDS011;8017;50.812;4.934;2022-12-18T00:56:45;60.87;;;32.90;;
15833;SDS011;8017;50.812;4.934;2022-12-18T00:59:47;68.73;;;34.87;;
15833;SDS011;8017;50.812;4.934;2022-12-18T01:02:49;73.93;;;34.13;;
15833;SDS011;8017;50.812;4.934;2022-12-18T01:05:51;64.67;;;33.40;;
15833;SDS011;8017;50.812;4.934;2022-12-18T01:08:55;65.57;;;33.13;;
15833;SDS011;8017;50.812;4.934;2022-12-18T01:11:57;62.17;;;32.53;;
15833;SDS011;8017;50.812;4.934;2022-12-18T01:14:59;68.60;;;34.43;;
15833;SDS011;8017;50.812;4.934;2022-12-18T01:18:00;70.60;;;33.57;;
15833;SDS011;8017;50.812;4.934;2022-12-18T01:21:05;60.97;;;32.03;;
15833;SDS011;8017;50.812;4.934;2022-12-18T01:24:10;65.03;;;32.13;;
15833;SDS011;8017;50.812;4.934;2022-12-18T01:27:13;65.40;;;32.77;;
15833;SDS011;8017;50.812;4.934;2022-12-18T01:30:15;63.93;;;31.83;;
15833;SDS011;8017;50.812;4.934;2022-12-18T01:33:17;62.97;;;31.23;;
15833;SDS011;8017;50.812;4.934;2022-12-18T01:36:20;63.17;;;30.30;;
15833;SDS011;8017;50.812;4.934;2022-12-18T01:39:25;64.13;;;31.97;;
15833;SDS011;8017;50.812;4.934;2022-12-18T01:42:27;62.70;;;32.77;;
15833;SDS011;8017;50.812;4.934;2022-12-18T01:45:29;62.87;;;33.67;;
15833;SDS011;8017;50.812;4.934;2022-12-18T01:48:32;56.47;;;29.83;;
15833;SDS011;8017;50.812;4.934;2022-12-18T01:51:34;60.63;;;30.63;;
15833;SDS011;8017;50.812;4.934;2022-12-18T01:54:37;61.10;;;30.50;;
15833;SDS011;8017;50.812;4.934;2022-12-18T01:57:39;59.87;;;29.50;;
15833;SDS011;8017;50.812;4.934;2022-12-18T02:00:42;55.27;;;29.23;;
15833;SDS011;8017;50.812;4.934;2022-12-18T02:03:44;52.73;;;28.17;;
15833;SDS011;8017;50.812;4.934;2022-12-18T02:06:46;52.67;;;27.63;;
15833;SDS011;8017;50.812;4.934;2022-12-18T02:09:55;53.97;;;27.43;;
15833;SDS011;8017;50.812;4.934;2022-12-18T02:13:05;50.67;;;28.13;;
15833;SDS011;8017;50.812;4.934;2022-12-18T02:16:17;39.70;;;23.40;;
15833;SDS011;8017;50.812;4.934;2022-12-18T02:19:32;41.37;;;23.17;;
15833;SDS011;8017;50.812;4.934;2022-12-18T02:23:02;40.27;;;23.50;;
15833;SDS011;8017;50.812;4.934;2022-12-18T02:26:15;35.77;;;22.13;;
15833;SDS011;8017;50.812;4.934;2022-12-18T02:29:21;41.80;;;23.20;;
15833;SDS011;8017;50.812;4.934;2022-12-18T02:32:27;45.23;;;23.60;;
15833;SDS011;8017;50.812;4.934;2022-12-18T02:35:32;43.57;;;23.00;;
15833;SDS011;8017;50.812;4.934;2022-12-18T02:38:35;40.20;;;24.23;;
15833;SDS011;8017;50.812;4.934;2022-12-18T02:41:39;45.07;;;23.20;;
15833;SDS011;8017;50.812;4.934;2022-12-18T02:44:42;43.70;;;24.37;;
15833;SDS011;8017;50.812;4.934;2022-12-18T02:47:46;42.53;;;23.30;;
15833;SDS011;8017;50.812;4.934;2022-12-18T02:50:51;43.30;;;24.63;;
15833;SDS011;8017;50.812;4.934;2022-12-18T02:54:02;43.63;;;24.37;;
15833;SDS011;8017;50.812;4.934;2022-12-18T02:57:13;39.37;;;24.13;;
15833;SDS011;8017;50.812;4.934;2022-12-18T03:00:23;49.70;;;25.13;;
15833;SDS011;8017;50.812;4.934;2022-12-18T03:03:30;43.97;;;25.57;;
15833;SDS011;8017;50.812;4.934;2022-12-18T03:06:38;44.10;;;25.50;;
15833;SDS011;8017;50.812;4.934;2022-12-18T03:09:46;40.13;;;23.73;;
15833;SDS011;8017;50.812;4.934;2022-12-18T03:12:53;45.27;;;25.33;;
15833;SDS011;8017;50.812;4.934;2022-12-18T03:16:00;43.43;;;25.17;;
15833;SDS011;8017;50.812;4.934;2022-12-18T03:19:06;47.90;;;26.80;;
15833;SDS011;8017;50.812;4.934;2022-12-18T03:22:12;52.70;;;27.17;;
15833;SDS011;8017;50.812;4.934;2022-12-18T03:25:17;48.13;;;25.70;;
15833;SDS011;8017;50.812;4.934;2022-12-18T03:28:22;45.57;;;25.73;;
15833;SDS011;8017;50.812;4.934;2022-12-18T03:31:24;53.70;;;26.67;;
15833;SDS011;8017;50.812;4.934;2022-12-18T03:34:30;47.17;;;25.53;;
15833;SDS011;8017;50.812;4.934;2022-12-18T03:37:34;48.80;;;26.60;;
15833;SDS011;8017;50.812;4.934;2022-12-18T03:40:40;47.83;;;26.40;;
15833;SDS011;8017;50.812;4.934;2022-12-18T03:43:52;48.10;;;25.93;;
15833;SDS011;8017;50.812;4.934;2022-12-18T03:47:06;51.17;;;25.53;;
15833;SDS011;8017;50.812;4.934;2022-12-18T03:50:11;42.07;;;25.13;;
15833;SDS011;8017;50.812;4.934;2022-12-18T03:53:19;48.03;;;25.73;;
15833;SDS011;8017;50.812;4.934;2022-12-18T03:56:30;40.80;;;22.80;;
15833;SDS011;8017;50.812;4.934;2022-12-18T03:59:36;42.37;;;24.23;;
15833;SDS011;8017;50.812;4.934;2022-12-18T04:02:40;46.03;;;23.37;;
15833;SDS011;8017;50.812;4.934;2022-12-18T04:05:47;44.23;;;25.03;;
15833;SDS011;8017;50.812;4.934;2022-12-18T04:08:51;46.00;;;26.20;;
15833;SDS011;8017;50.812;4.934;2022-12-18T04:11:54;54.00;;;27.10;;
15833;SDS011;8017;50.812;4.934;2022-12-18T04:14:57;49.70;;;26.77;;
15833;SDS011;8017;50.812;4.934;2022-12-18T04:17:59;48.57;;;27.47;;
15833;SDS011;8017;50.812;4.934;2022-12-18T04:21:01;49.90;;;27.37;;
15833;SDS011;8017;50.812;4.934;2022-12-18T04:24:04;43.67;;;23.07;;
15833;SDS011;8017;50.812;4.934;2022-12-18T04:27:06;46.47;;;24.80;;
15833;SDS011;8017;50.812;4.934;2022-12-18T04:30:10;37.90;;;22.80;;
15833;SDS011;8017;50.812;4.934;2022-12-18T04:33:12;46.80;;;23.83;;
15833;SDS011;8017;50.812;4.934;2022-12-18T04:36:17;40.13;;;21.93;;
15833;SDS011;8017;50.812;4.934;2022-12-18T04:39:19;38.70;;;22.10;;
15833;SDS011;8017;50.812;4.934;2022-12-18T04:42:21;39.43;;;22.03;;
15833;SDS011;8017;50.812;4.934;2022-12-18T04:45:25;41.10;;;21.40;;
15833;SDS011;8017;50.812;4.934;2022-12-18T04:48:27;40.10;;;23.20;;
15833;SDS011;8017;50.812;4.934;2022-12-18T04:51:28;37.43;;;20.53;;
15833;SDS011;8017;50.812;4.934;2022-12-18T04:54:30;42.87;;;23.17;;
15833;SDS011;8017;50.812;4.934;2022-12-18T04:57:32;40.17;;;22.60;;
15833;SDS011;8017;50.812;4.934;2022-12-18T05:00:35;42.03;;;24.40;;
15833;SDS011;8017;50.812;4.934;2022-12-18T05:03:37;44.33;;;25.37;;
15833;SDS011;8017;50.812;4.934;2022-12-18T05:06:39;41.57;;;23.50;;
15833;SDS011;8017;50.812;4.934;2022-12-18T05:09:41;41.47;;;23.27;;
15833;SDS011;8017;50.812;4.934;2022-12-18T05:12:43;42.23;;;23.93;;
15833;SDS011;8017;50.812;4.934;2022-12-18T05:16:00;46.03;;;23.77;;
15833;SDS011;8017;50.812;4.934;2022-12-18T05:19:02;42.90;;;24.23;;
15833;SDS011;8017;50.812;4.934;2022-12-18T05:22:04;46.70;;;24.60;;
15833;SDS011;8017;50.812;4.934;2022-12-18T05:25:06;42.23;;;22.87;;
15833;SDS011;8017;50.812;4.934;2022-12-18T05:28:09;47.93;;;25.13;;
15833;SDS011;8017;50.812;4.934;2022-12-18T05:31:12;48.40;;;25.40;;
15833;SDS011;8017;50.812;4.934;2022-12-18T05:34:14;45.93;;;24.37;;
15833;SDS011;8017;50.812;4.934;2022-12-18T05:37:16;48.27;;;24.83;;
15833;SDS011;8017;50.812;4.934;2022-12-18T05:40:18;47.87;;;23.23;;
15833;SDS011;8017;50.812;4.934;2022-12-18T05:43:20;45.20;;;23.37;;
15833;SDS011;8017;50.812;4.934;2022-12-18T05:46:25;45.97;;;25.00;;
15833;SDS011;8017;50.812;4.934;2022-12-18T05:49:28;52.23;;;25.50;;
15833;SDS011;8017;50.812;4.934;2022-12-18T05:52:30;49.50;;;25.30;;
15833;SDS011;8017;50.812;4.934;2022-12-18T05:55:32;49.00;;;27.63;;
15833;SDS011;8017;50.812;4.934;2022-12-18T05:58:35;51.87;;;26.47;;
15833;SDS011;8017;50.812;4.934;2022-12-18T06:01:39;47.13;;;25.43;;
15833;SDS011;8017;50.812;4.934;2022-12-18T06:04:40;46.13;;;25.20;;
15833;SDS011;8017;50.812;4.934;2022-12-18T06:07:42;47.17;;;25.13;;
15833;SDS011;8017;50.812;4.934;2022-12-18T06:10:49;41.63;;;23.27;;
15833;SDS011;8017;50.812;4.934;2022-12-18T06:13:52;47.83;;;22.73;;
15833;SDS011;8017;50.812;4.934;2022-12-18T06:16:57;46.80;;;22.73;;
15833;SDS011;8017;50.812;4.934;2022-12-18T06:19:59;47.03;;;23.70;;
15833;SDS011;8017;50.812;4.934;2022-12-18T06:23:01;48.77;;;24.67;;
15833;SDS011;8017;50.812;4.934;2022-12-18T06:26:03;44.03;;;23.57;;
15833;SDS011;8017;50.812;4.934;2022-12-18T06:29:06;46.27;;;26.30;;
15833;SDS011;8017;50.812;4.934;2022-12-18T06:32:09;44.43;;;23.80;;
15833;SDS011;8017;50.812;4.934;2022-12-18T06:35:11;50.47;;;27.13;;
15833;SDS011;8017;50.812;4.934;2022-12-18T06:38:13;48.13;;;26.60;;
15833;SDS011;8017;50.812;4.934;2022-12-18T06:41:16;46.50;;;24.13;;
15833;SDS011;8017;50.812;4.934;2022-12-18T06:44:19;48.47;;;24.33;;
15833;SDS011;8017;50.812;4.934;2022-12-18T06:47:23;42.40;;;23.73;;
15833;SDS011;8017;50.812;4.934;2022-12-18T06:50:24;49.47;;;24.20;;
15833;SDS011;8017;50.812;4.934;2022-12-18T06:53:26;43.87;;;24.53;;
15833;SDS011;8017;50.812;4.934;2022-12-18T06:56:29;47.40;;;25.33;;
15833;SDS011;8017;50.812;4.934;2022-12-18T06:59:31;42.03;;;22.10;;
15833;SDS011;8017;50.812;4.934;2022-12-18T07:02:35;45.03;;;24.17;;
15833;SDS011;8017;50.812;4.934;2022-12-18T07:05:39;49.60;;;24.30;;
15833;SDS011;8017;50.812;4.934;2022-12-18T07:08:41;39.17;;;22.07;;
15833;SDS011;8017;50.812;4.934;2022-12-18T07:11:43;41.33;;;22.50;;
15833;SDS011;8017;50.812;4.934;2022-12-18T07:14:45;43.67;;;23.63;;
15833;SDS011;8017;50.812;4.934;2022-12-18T07:17:48;49.40;;;24.37;;
15833;SDS011;8017;50.812;4.934;2022-12-18T07:20:50;47.63;;;22.87;;
15833;SDS011;8017;50.812;4.934;2022-12-18T07:23:52;39.33;;;23.17;;
15833;SDS011;8017;50.812;4.934;2022-12-18T07:26:54;42.50;;;23.27;;
15833;SDS011;8017;50.812;4.934;2022-12-18T07:29:56;45.50;;;23.80;;
15833;SDS011;8017;50.812;4.934;2022-12-18T07:32:59;48.80;;;22.50;;
15833;SDS011;8017;50.812;4.934;2022-12-18T07:36:01;40.47;;;21.70;;
15833;SDS011;8017;50.812;4.934;2022-12-18T07:39:03;39.67;;;21.90;;
15833;SDS011;8017;50.812;4.934;2022-12-18T07:42:05;41.73;;;22.40;;
15833;SDS011;8017;50.812;4.934;2022-12-18T07:45:24;36.73;;;20.37;;
15833;SDS011;8017;50.812;4.934;2022-12-18T07:48:28;40.33;;;22.03;;
15833;SDS011;8017;50.812;4.934;2022-12-18T07:51:30;47.37;;;22.63;;
15833;SDS011;8017;50.812;4.934;2022-12-18T07:54:32;38.50;;;21.00;;
15833;SDS011;8017;50.812;4.934;2022-12-18T07:57:34;42.17;;;23.17;;
15833;SDS011;8017;50.812;4.934;2022-12-18T08:00:36;36.07;;;19.90;;
15833;SDS011;8017;50.812;4.934;2022-12-18T08:03:40;39.47;;;21.87;;
15833;SDS011;8017;50.812;4.934;2022-12-18T08:06:42;41.67;;;20.47;;
15833;SDS011;8017;50.812;4.934;2022-12-18T08:09:43;39.83;;;21.47;;
15833;SDS011;8017;50.812;4.934;2022-12-18T08:12:46;57.03;;;26.90;;
15833;SDS011;8017;50.812;4.934;2022-12-18T08:15:55;46.20;;;22.37;;
15833;SDS011;8017;50.812;4.934;2022-12-18T08:18:59;37.93;;;20.27;;
15833;SDS011;8017;50.812;4.934;2022-12-18T08:22:01;32.10;;;19.87;;
15833;SDS011;8017;50.812;4.934;2022-12-18T08:25:03;38.67;;;21.53;;
15833;SDS011;8017;50.812;4.934;2022-12-18T08:28:06;36.33;;;18.93;;
15833;SDS011;8017;50.812;4.934;2022-12-18T08:31:08;34.10;;;19.03;;
15833;SDS011;8017;50.812;4.934;2022-12-18T08:34:12;33.97;;;18.43;;
15833;SDS011;8017;50.812;4.934;2022-12-18T08:37:14;31.70;;;17.73;;
15833;SDS011;8017;50.812;4.934;2022-12-18T08:40:16;31.57;;;19.10;;
15833;SDS011;8017;50.812;4.934;2022-12-18T08:43:18;32.70;;;18.63;;
15833;SDS011;8017;50.812;4.934;2022-12-18T08:46:38;32.43;;;18.33;;
15833;SDS011;8017;50.812;4.934;2022-12-18T08:49:43;30.00;;;17.93;;
15833;SDS011;8017;50.812;4.934;2022-12-18T08:52:46;31.17;;;18.03;;
15833;SDS011;8017;50.812;4.934;2022-12-18T08:55:48;31.50;;;17.80;;
15833;SDS011;8017;50.812;4.934;2022-12-18T08:58:51;30.40;;;17.63;;
15833;SDS011;8017;50.812;4.934;2022-12-18T09:01:54;30.37;;;17.37;;
15833;SDS011;8017;50.812;4.934;2022-12-18T09:04:57;27.50;;;16.73;;
15833;SDS011;8017;50.812;4.934;2022-12-18T09:07:59;29.60;;;17.03;;
15833;SDS011;8017;50.812;4.934;2022-12-18T09:11:01;29.10;;;16.13;;
15833;SDS011;8017;50.812;4.934;2022-12-18T09:14:06;36.30;;;16.03;;
15833;SDS011;8017;50.812;4.934;2022-12-18T09:17:08;30.73;;;16.97;;
15833;SDS011;8017;50.812;4.934;2022-12-18T09:20:11;29.80;;;17.13;;
15833;SDS011;8017;50.812;4.934;2022-12-18T09:23:14;35.23;;;16.57;;
15833;SDS011;8017;50.812;4.934;2022-12-18T09:26:16;27.33;;;16.60;;
15833;SDS011;8017;50.812;4.934;2022-12-18T09:29:18;29.30;;;17.17;;
15833;SDS011;8017;50.812;4.934;2022-12-18T09:32:20;26.70;;;15.90;;
15833;SDS011;8017;50.812;4.934;2022-12-18T09:35:23;24.03;;;15.33;;
15833;SDS011;8017;50.812;4.934;2022-12-18T09:38:25;26.23;;;14.40;;
15833;SDS011;8017;50.812;4.934;2022-12-18T09:41:32;24.07;;;14.53;;
15833;SDS011;8017;50.812;4.934;2022-12-18T09:44:41;24.33;;;14.23;;
15833;SDS011;8017;50.812;4.934;2022-12-18T09:47:46;24.67;;;15.53;;
15833;SDS011;8017;50.812;4.934;2022-12-18T09:50:52;25.57;;;15.17;;
15833;SDS011;8017;50.812;4.934;2022-12-18T09:53:59;25.70;;;14.77;;
15833;SDS011;8017;50.812;4.934;2022-12-18T09:57:04;21.10;;;13.67;;
15833;SDS011;8017;50.812;4.934;2022-12-18T10:00:09;26.90;;;15.03;;
15833;SDS011;8017;50.812;4.934;2022-12-18T10:03:18;24.83;;;15.13;;
15833;SDS011;8017;50.812;4.934;2022-12-18T10:06:23;25.60;;;15.63;;
15833;SDS011;8017;50.812;4.934;2022-12-18T10:09:31;25.47;;;15.03;;
15833;SDS011;8017;50.812;4.934;2022-12-18T10:12:40;26.07;;;14.67;;
15833;SDS011;8017;50.812;4.934;2022-12-18T10:15:49;27.77;;;15.40;;
15833;SDS011;8017;50.812;4.934;2022-12-18T10:19:01;27.33;;;15.63;;
15833;SDS011;8017;50.812;4.934;2022-12-18T10:22:19;25.77;;;14.63;;
15833;SDS011;8017;50.812;4.934;2022-12-18T10:25:31;29.97;;;17.83;;
15833;SDS011;8017;50.812;4.934;2022-12-18T10:28:41;27.37;;;16.27;;
15833;SDS011;8017;50.812;4.934;2022-12-18T10:31:45;23.23;;;13.80;;
15833;SDS011;8017;50.812;4.934;2022-12-18T10:34:48;26.27;;;15.70;;
15833;SDS011;8017;50.812;4.934;2022-12-18T10:38:04;23.80;;;15.33;;
15833;SDS011;8017;50.812;4.934;2022-12-18T10:41:22;24.37;;;17.37;;
15833;SDS011;8017;50.812;4.934;2022-12-18T10:44:26;45.73;;;25.30;;
15833;SDS011;8017;50.812;4.934;2022-12-18T10:47:28;33.83;;;20.80;;
15833;SDS011;8017;50.812;4.934;2022-12-18T10:50:31;28.63;;;18.20;;
15833;SDS011;8017;50.812;4.934;2022-12-18T10:53:36;27.03;;;17.10;;
15833;SDS011;8017;50.812;4.934;2022-12-18T10:56:38;32.93;;;21.07;;
15833;SDS011;8017;50.812;4.934;2022-12-18T10:59:50;32.87;;;18.60;;
15833;SDS011;8017;50.812;4.934;2022-12-18T11:02:53;45.73;;;25.33;;
15833;SDS011;8017;50.812;4.934;2022-12-18T11:06:01;66.70;;;38.17;;
15833;SDS011;8017;50.812;4.934;2022-12-18T11:09:18;80.10;;;45.77;;
15833;SDS011;8017;50.812;4.934;2022-12-18T11:12:22;62.40;;;40.97;;
15833;SDS011;8017;50.812;4.934;2022-12-18T11:15:25;44.67;;;27.00;;
15833;SDS011;8017;50.812;4.934;2022-12-18T11:18:31;40.43;;;26.97;;
15833;SDS011;8017;50.812;4.934;2022-12-18T11:21:38;33.13;;;21.03;;
15833;SDS011;8017;50.812;4.934;2022-12-18T11:24:42;26.37;;;18.20;;
15833;SDS011;8017;50.812;4.934;2022-12-18T11:27:47;32.87;;;20.63;;
15833;SDS011;8017;50.812;4.934;2022-12-18T11:30:50;28.03;;;17.80;;
15833;SDS011;8017;50.812;4.934;2022-12-18T11:34:14;31.27;;;18.57;;
15833;SDS011;8017;50.812;4.934;2022-12-18T11:37:23;25.23;;;17.50;;
15833;SDS011;8017;50.812;4.934;2022-12-18T11:40:29;30.57;;;21.03;;
15833;SDS011;8017;50.812;4.934;2022-12-18T11:43:35;39.10;;;24.77;;
15833;SDS011;8017;50.812;4.934;2022-12-18T11:46:43;47.17;;;28.83;;
15833;SDS011;8017;50.812;4.934;2022-12-18T11:49:49;37.60;;;24.00;;
15833;SDS011;8017;50.812;4.934;2022-12-18T11:52:52;62.23;;;40.33;;
15833;SDS011;8017;50.812;4.934;2022-12-18T11:55:58;41.77;;;25.60;;
15833;SDS011;8017;50.812;4.934;2022-12-18T11:59:07;41.90;;;28.43;;
15833;SDS011;8017;50.812;4.934;2022-12-18T12:02:26;31.83;;;21.10;;
15833;SDS011;8017;50.812;4.934;2022-12-18T12:05:41;28.33;;;18.17;;
15833;SDS011;8017;50.812;4.934;2022-12-18T12:08:54;41.03;;;25.40;;
15833;SDS011;8017;50.812;4.934;2022-12-18T12:12:09;36.33;;;23.50;;
15833;SDS011;8017;50.812;4.934;2022-12-18T12:15:25;58.30;;;36.70;;
15833;SDS011;8017;50.812;4.934;2022-12-18T12:18:39;33.13;;;21.03;;
15833;SDS011;8017;50.812;4.934;2022-12-18T12:21:52;35.70;;;21.33;;
15833;SDS011;8017;50.812;4.934;2022-12-18T12:25:02;31.87;;;19.20;;
15833;SDS011;8017;50.812;4.934;2022-12-18T12:28:15;35.00;;;21.20;;
15833;SDS011;8017;50.812;4.934;2022-12-18T12:31:38;26.70;;;18.97;;
15833;SDS011;8017;50.812;4.934;2022-12-18T12:34:54;34.63;;;22.17;;
15833;SDS011;8017;50.812;4.934;2022-12-18T12:38:08;34.97;;;22.97;;
15833;SDS011;8017;50.812;4.934;2022-12-18T12:41:14;34.07;;;21.80;;
15833;SDS011;8017;50.812;4.934;2022-12-18T12:44:39;31.93;;;21.80;;
15833;SDS011;8017;50.812;4.934;2022-12-18T12:47:45;33.03;;;19.63;;
15833;SDS011;8017;50.812;4.934;2022-12-18T12:50:49;28.07;;;19.67;;
15833;SDS011;8017;50.812;4.934;2022-12-18T12:53:52;28.87;;;17.97;;
15833;SDS011;8017;50.812;4.934;2022-12-18T12:57:07;28.30;;;18.83;;
15833;SDS011;8017;50.812;4.934;2022-12-18T13:00:16;31.57;;;19.37;;
15833;SDS011;8017;50.812;4.934;2022-12-18T13:03:23;29.53;;;17.60;;
15833;SDS011;8017;50.812;4.934;2022-12-18T13:06:35;22.40;;;15.43;;
15833;SDS011;8017;50.812;4.934;2022-12-18T13:13:22;23.27;;;14.77;;
15833;SDS011;8017;50.812;4.934;2022-12-18T13:16:26;22.57;;;16.00;;
15833;SDS011;8017;50.812;4.934;2022-12-18T13:19:28;20.60;;;14.70;;
15833;SDS011;8017;50.812;4.934;2022-12-18T13:22:31;19.40;;;13.83;;
15833;SDS011;8017;50.812;4.934;2022-12-18T13:25:37;18.73;;;14.20;;
15833;SDS011;8017;50.812;4.934;2022-12-18T13:28:52;19.17;;;13.40;;
15833;SDS011;8017;50.812;4.934;2022-12-18T13:32:00;19.77;;;13.80;;
15833;SDS011;8017;50.812;4.934;2022-12-18T13:38:39;17.73;;;13.53;;
15833;SDS011;8017;50.812;4.934;2022-12-18T13:41:42;19.90;;;14.83;;
15833;SDS011;8017;50.812;4.934;2022-12-18T13:44:46;21.43;;;14.70;;
15833;SDS011;8017;50.812;4.934;2022-12-18T13:47:49;22.73;;;16.00;;
15833;SDS011;8017;50.812;4.934;2022-12-18T13:50:53;21.03;;;15.27;;
15833;SDS011;8017;50.812;4.934;2022-12-18T13:53:58;20.50;;;14.63;;
15833;SDS011;8017;50.812;4.934;2022-12-18T13:57:03;20.00;;;14.27;;
15833;SDS011;8017;50.812;4.934;2022-12-18T14:00:19;18.53;;;13.30;;
15833;SDS011;8017;50.812;4.934;2022-12-18T14:03:28;18.17;;;13.23;;
15833;SDS011;8017;50.812;4.934;2022-12-18T14:06:31;20.50;;;13.87;;
15833;SDS011;8017;50.812;4.934;2022-12-18T14:09:34;22.20;;;14.50;;
15833;SDS011;8017;50.812;4.934;2022-12-18T14:12:38;20.23;;;14.77;;
15833;SDS011;8017;50.812;4.934;2022-12-18T14:15:58;21.87;;;14.23;;
15833;SDS011;8017;50.812;4.934;2022-12-18T14:19:04;20.63;;;13.57;;
15833;SDS011;8017;50.812;4.934;2022-12-18T14:22:15;24.37;;;16.17;;
15833;SDS011;8017;50.812;4.934;2022-12-18T14:25:19;27.27;;;15.50;;
15833;SDS011;8017;50.812;4.934;2022-12-18T14:28:22;30.27;;;20.10;;
15833;SDS011;8017;50.812;4.934;2022-12-18T14:31:26;28.17;;;18.03;;
15833;SDS011;8017;50.812;4.934;2022-12-18T14:34:30;28.60;;;18.23;;
15833;SDS011;8017;50.812;4.934;2022-12-18T14:37:32;26.73;;;17.37;;
15833;SDS011;8017;50.812;4.934;2022-12-18T14:40:34;25.47;;;16.73;;
15833;SDS011;8017;50.812;4.934;2022-12-18T14:43:37;29.03;;;18.60;;
15833;SDS011;8017;50.812;4.934;2022-12-18T14:46:41;28.23;;;18.03;;
15833;SDS011;8017;50.812;4.934;2022-12-18T14:49:47;23.43;;;16.23;;
15833;SDS011;8017;50.812;4.934;2022-12-18T14:52:49;23.33;;;16.00;;
15833;SDS011;8017;50.812;4.934;2022-12-18T14:55:51;26.93;;;16.87;;
15833;SDS011;8017;50.812;4.934;2022-12-18T14:58:54;24.77;;;16.33;;
15833;SDS011;8017;50.812;4.934;2022-12-18T15:01:59;25.93;;;17.30;;
15833;SDS011;8017;50.812;4.934;2022-12-18T15:05:16;25.20;;;16.43;;
15833;SDS011;8017;50.812;4.934;2022-12-18T15:08:28;26.97;;;16.80;;
15833;SDS011;8017;50.812;4.934;2022-12-18T15:11:33;26.67;;;16.27;;
15833;SDS011;8017;50.812;4.934;2022-12-18T15:14:39;26.97;;;17.20;;
15833;SDS011;8017;50.812;4.934;2022-12-18T15:17:41;44.63;;;25.80;;
15833;SDS011;8017;50.812;4.934;2022-12-18T15:20:45;27.83;;;19.53;;
15833;SDS011;8017;50.812;4.934;2022-12-18T15:23:49;31.83;;;19.17;;
15833;SDS011;8017;50.812;4.934;2022-12-18T15:26:52;30.50;;;20.73;;
15833;SDS011;8017;50.812;4.934;2022-12-18T15:33:23;27.60;;;17.80;;
15833;SDS011;8017;50.812;4.934;2022-12-18T15:36:27;27.27;;;17.83;;
15833;SDS011;8017;50.812;4.934;2022-12-18T15:39:30;30.77;;;17.57;;
15833;SDS011;8017;50.812;4.934;2022-12-18T15:42:32;25.73;;;17.33;;
15833;SDS011;8017;50.812;4.934;2022-12-18T15:45:51;25.50;;;16.67;;
15833;SDS011;8017;50.812;4.934;2022-12-18T15:48:54;25.63;;;17.93;;
15833;SDS011;8017;50.812;4.934;2022-12-18T15:51:58;27.43;;;18.33;;
15833;SDS011;8017;50.812;4.934;2022-12-18T15:55:01;28.00;;;17.87;;
15833;SDS011;8017;50.812;4.934;2022-12-18T15:58:25;27.63;;;17.37;;
15833;SDS011;8017;50.812;4.934;2022-12-18T16:01:28;27.03;;;17.73;;
15833;SDS011;8017;50.812;4.934;2022-12-18T16:04:31;27.50;;;17.30;;
15833;SDS011;8017;50.812;4.934;2022-12-18T16:07:34;24.57;;;15.87;;
15833;SDS011;8017;50.812;4.934;2022-12-18T16:10:36;27.10;;;17.73;;
15833;SDS011;8017;50.812;4.934;2022-12-18T16:13:38;31.93;;;20.03;;
15833;SDS011;8017;50.812;4.934;2022-12-18T16:16:40;26.23;;;17.17;;
15833;SDS011;8017;50.812;4.934;2022-12-18T16:19:42;26.33;;;18.20;;
15833;SDS011;8017;50.812;4.934;2022-12-18T16:22:46;28.97;;;19.00;;
15833;SDS011;8017;50.812;4.934;2022-12-18T16:25:49;27.57;;;16.57;;
15833;SDS011;8017;50.812;4.934;2022-12-18T16:28:51;27.40;;;17.87;;
15833;SDS011;8017;50.812;4.934;2022-12-18T16:31:54;28.47;;;18.97;;
15833;SDS011;8017;50.812;4.934;2022-12-18T16:34:59;24.67;;;16.60;;
15833;SDS011;8017;50.812;4.934;2022-12-18T16:38:02;26.57;;;17.73;;
15833;SDS011;8017;50.812;4.934;2022-12-18T16:41:06;28.27;;;18.33;;
15833;SDS011;8017;50.812;4.934;2022-12-18T16:44:35;30.90;;;18.90;;
15833;SDS011;8017;50.812;4.934;2022-12-18T16:47:37;30.73;;;18.47;;
15833;SDS011;8017;50.812;4.934;2022-12-18T16:50:39;32.53;;;19.87;;
15833;SDS011;8017;50.812;4.934;2022-12-18T16:53:42;27.73;;;18.93;;
15833;SDS011;8017;50.812;4.934;2022-12-18T16:56:44;26.20;;;17.00;;
15833;SDS011;8017;50.812;4.934;2022-12-18T16:59:48;27.33;;;17.97;;
15833;SDS011;8017;50.812;4.934;2022-12-18T17:02:50;30.33;;;19.50;;
15833;SDS011;8017;50.812;4.934;2022-12-18T17:05:53;29.13;;;18.50;;
15833;SDS011;8017;50.812;4.934;2022-12-18T17:09:05;28.43;;;18.03;;
15833;SDS011;8017;50.812;4.934;2022-12-18T17:12:08;32.67;;;21.17;;
15833;SDS011;8017;50.812;4.934;2022-12-18T17:15:11;27.17;;;17.20;;
15833;SDS011;8017;50.812;4.934;2022-12-18T17:18:13;27.23;;;17.33;;
15833;SDS011;8017;50.812;4.934;2022-12-18T17:21:15;25.90;;;17.07;;
15833;SDS011;8017;50.812;4.934;2022-12-18T17:24:18;30.37;;;18.70;;
15833;SDS011;8017;50.812;4.934;2022-12-18T17:27:20;29.77;;;19.60;;
15833;SDS011;8017;50.812;4.934;2022-12-18T17:30:22;29.50;;;19.73;;
15833;SDS011;8017;50.812;4.934;2022-12-18T17:33:24;28.53;;;18.27;;
15833;SDS011;8017;50.812;4.934;2022-12-18T17:36:26;28.67;;;18.90;;
15833;SDS011;8017;50.812;4.934;2022-12-18T17:39:31;28.37;;;18.20;;
15833;SDS011;8017;50.812;4.934;2022-12-18T17:42:33;29.03;;;18.20;;
15833;SDS011;8017;50.812;4.934;2022-12-18T17:45:35;27.93;;;17.33;;
15833;SDS011;8017;50.812;4.934;2022-12-18T17:48:37;33.00;;;17.63;;
15833;SDS011;8017;50.812;4.934;2022-12-18T17:51:40;30.37;;;19.03;;
15833;SDS011;8017;50.812;4.934;2022-12-18T17:54:44;32.30;;;18.73;;
15833;SDS011;8017;50.812;4.934;2022-12-18T17:57:46;25.53;;;16.83;;
15833;SDS011;8017;50.812;4.934;2022-12-18T18:00:48;28.97;;;17.60;;
15833;SDS011;8017;50.812;4.934;2022-12-18T18:03:50;26.93;;;17.97;;
15833;SDS011;8017;50.812;4.934;2022-12-18T18:06:52;31.07;;;17.70;;
15833;SDS011;8017;50.812;4.934;2022-12-18T18:09:56;28.50;;;18.03;;
15833;SDS011;8017;50.812;4.934;2022-12-18T18:12:58;28.50;;;18.87;;
15833;SDS011;8017;50.812;4.934;2022-12-18T18:16:17;29.63;;;18.90;;
15833;SDS011;8017;50.812;4.934;2022-12-18T18:19:19;29.70;;;19.53;;
15833;SDS011;8017;50.812;4.934;2022-12-18T18:22:22;29.73;;;18.73;;
15833;SDS011;8017;50.812;4.934;2022-12-18T18:25:26;26.03;;;17.77;;
15833;SDS011;8017;50.812;4.934;2022-12-18T18:28:28;27.73;;;17.70;;